sensor_id;sensor_type;location;lat;lon;timestamp;pressure;altitude;pressure_sealevel;temperature;humidity
35798;BME280;21918;49.940;7.774;2023-06-26T00:01:44;98692.28;;;27.82;37.17
35798;BME280;21918;49.940;7.774;2023-06-26T00:04:11;98684.19;;;27.80;37.11
35798;BME280;21918;49.940;7.774;2023-06-26T00:06:40;98684.19;;;27.80;37.19
35798;BME280;21918;49.940;7.774;2023-06-26T00:09:06;98683.41;;;27.80;37.22
35798;BME280;21918;49.940;7.774;2023-06-26T00:11:33;98681.88;;;27.75;37.32
35798;BME280;21918;49.940;7.774;2023-06-26T00:14:01;98688.03;;;27.74;37.05
35798;BME280;21918;49.940;7.774;2023-06-26T00:16:28;98691.75;;;27.71;37.01
35798;BME280;21918;49.940;7.774;2023-06-26T00:18:56;98682.00;;;27.72;37.49
35798;BME280;21918;49.940;7.774;2023-06-26T00:21:23;98675.41;;;27.75;37.37
35798;BME280;21918;49.940;7.774;2023-06-26T00:23:50;98674.69;;;27.71;37.25
35798;BME280;21918;49.940;7.774;2023-06-26T00:26:17;98665.13;;;27.65;37.40
35798;BME280;21918;49.940;7.774;2023-06-26T00:28:43;98677.41;;;27.62;37.19
35798;BME280;21918;49.940;7.774;2023-06-26T00:31:12;98661.56;;;27.61;37.21
35798;BME280;21918;49.940;7.774;2023-06-26T00:33:42;98668.94;;;27.58;37.37
35798;BME280;21918;49.940;7.774;2023-06-26T00:36:09;98662.47;;;27.58;37.29
35798;BME280;21918;49.940;7.774;2023-06-26T00:38:36;98661.22;;;27.59;37.72
35798;BME280;21918;49.940;7.774;2023-06-26T00:41:05;98663.63;;;27.60;37.44
35798;BME280;21918;49.940;7.774;2023-06-26T00:43:38;98658.00;;;27.57;37.30
35798;BME280;21918;49.940;7.774;2023-06-26T00:46:05;98667.19;;;27.48;37.21
35798;BME280;21918;49.940;7.774;2023-06-26T00:48:36;98674.56;;;27.46;37.75
35798;BME280;21918;49.940;7.774;2023-06-26T00:51:06;98673.00;;;27.45;37.75
35798;BME280;21918;49.940;7.774;2023-06-26T00:53:33;98679.47;;;27.45;37.72
35798;BME280;21918;49.940;7.774;2023-06-26T00:56:00;98675.03;;;27.44;37.52
35798;BME280;21918;49.940;7.774;2023-06-26T00:58:28;98673.19;;;27.38;37.66
35798;BME280;21918;49.940;7.774;2023-06-26T01:00:55;98659.03;;;27.34;37.56
35798;BME280;21918;49.940;7.774;2023-06-26T01:03:23;98665.28;;;27.29;37.30
35798;BME280;21918;49.940;7.774;2023-06-26T01:05:52;98658.41;;;27.27;37.67
35798;BME280;21918;49.940;7.774;2023-06-26T01:32:35;98650.22;;;26.80;38.02
35798;BME280;21918;49.940;7.774;2023-06-26T01:35:06;98648.72;;;26.92;38.05
35798;BME280;21918;49.940;7.774;2023-06-26T01:37:33;98652.34;;;26.92;37.87
35798;BME280;21918;49.940;7.774;2023-06-26T01:40:02;98642.94;;;26.95;37.81
35798;BME280;21918;49.940;7.774;2023-06-26T01:42:31;98646.59;;;26.96;37.99
35798;BME280;21918;49.940;7.774;2023-06-26T01:45:02;98641.19;;;27.02;38.21
35798;BME280;21918;49.940;7.774;2023-06-26T01:47:32;98643.22;;;27.01;38.01
35798;BME280;21918;49.940;7.774;2023-06-26T01:50:06;98651.47;;;26.95;37.95
35798;BME280;21918;49.940;7.774;2023-06-26T01:52:38;98645.09;;;26.91;38.16
35798;BME280;21918;49.940;7.774;2023-06-26T01:55:12;98649.97;;;26.91;37.92
35798;BME280;21918;49.940;7.774;2023-06-26T01:57:43;98648.13;;;27.01;38.12
35798;BME280;21918;49.940;7.774;2023-06-26T02:00:16;98648.56;;;26.99;38.34
35798;BME280;21918;49.940;7.774;2023-06-26T02:02:44;98647.38;;;26.96;37.97
35798;BME280;21918;49.940;7.774;2023-06-26T02:05:13;98649.97;;;26.91;37.75
35798;BME280;21918;49.940;7.774;2023-06-26T02:07:40;98645.09;;;26.91;37.88
35798;BME280;21918;49.940;7.774;2023-06-26T02:10:07;98642.59;;;26.93;38.18
35798;BME280;21918;49.940;7.774;2023-06-26T02:12:35;98641.00;;;26.92;38.30
35798;BME280;21918;49.940;7.774;2023-06-26T02:15:02;98642.75;;;26.86;38.10
35798;BME280;21918;49.940;7.774;2023-06-26T02:17:29;98649.44;;;26.80;38.10
35798;BME280;21918;49.940;7.774;2023-06-26T02:19:56;98644.63;;;26.77;37.91
35798;BME280;21918;49.940;7.774;2023-06-26T02:22:24;98649.16;;;26.74;38.25
35798;BME280;21918;49.940;7.774;2023-06-26T02:24:50;98638.13;;;26.76;38.22
35798;BME280;21918;49.940;7.774;2023-06-26T02:27:17;98648.63;;;26.79;38.27
35798;BME280;21918;49.940;7.774;2023-06-26T02:29:44;98644.63;;;26.77;38.38
35798;BME280;21918;49.940;7.774;2023-06-26T02:32:11;98645.59;;;26.70;37.91
35798;BME280;21918;49.940;7.774;2023-06-26T02:34:37;98640.00;;;26.67;38.19
35798;BME280;21918;49.940;7.774;2023-06-26T02:37:04;98643.97;;;26.69;38.23
35798;BME280;21918;49.940;7.774;2023-06-26T02:39:34;98644.78;;;26.70;38.19
35798;BME280;21918;49.940;7.774;2023-06-26T02:42:00;98645.34;;;26.65;38.27
35798;BME280;21918;49.940;7.774;2023-06-26T02:44:27;98636.88;;;26.61;38.47
35798;BME280;21918;49.940;7.774;2023-06-26T02:46:54;98640.13;;;26.60;38.09
35798;BME280;21918;49.940;7.774;2023-06-26T02:49:21;98631.25;;;26.58;38.39
35798;BME280;21918;49.940;7.774;2023-06-26T02:51:48;98636.59;;;26.56;38.27
35798;BME280;21918;49.940;7.774;2023-06-26T02:54:15;98631.78;;;26.53;38.40
35798;BME280;21918;49.940;7.774;2023-06-26T02:56:43;98640.31;;;26.53;38.28
35798;BME280;21918;49.940;7.774;2023-06-26T02:59:10;98635.44;;;26.53;38.69
35798;BME280;21918;49.940;7.774;2023-06-26T03:01:36;98637.41;;;26.56;38.22
35798;BME280;21918;49.940;7.774;2023-06-26T03:04:03;98636.16;;;26.57;38.37
35798;BME280;21918;49.940;7.774;2023-06-26T03:06:30;98643.53;;;26.55;38.47
35798;BME280;21918;49.940;7.774;2023-06-26T03:08:57;98631.78;;;26.53;38.33
35798;BME280;21918;49.940;7.774;2023-06-26T03:11:26;98624.94;;;26.50;38.24
35798;BME280;21918;49.940;7.774;2023-06-26T03:13:54;98629.13;;;26.46;38.63
35798;BME280;21918;49.940;7.774;2023-06-26T03:16:21;98632.38;;;26.44;38.49
35798;BME280;21918;49.940;7.774;2023-06-26T03:18:48;98627.09;;;26.46;38.49
35798;BME280;21918;49.940;7.774;2023-06-26T03:21:14;98633.97;;;26.45;38.52
35798;BME280;21918;49.940;7.774;2023-06-26T03:23:41;98629.56;;;26.44;38.72
35798;BME280;21918;49.940;7.774;2023-06-26T03:26:07;98630.81;;;26.43;38.64
35798;BME280;21918;49.940;7.774;2023-06-26T03:28:34;98632.84;;;26.43;38.59
35798;BME280;21918;49.940;7.774;2023-06-26T03:31:02;98629.56;;;26.44;38.69
35798;BME280;21918;49.940;7.774;2023-06-26T03:33:29;98628.31;;;26.45;38.69
35798;BME280;21918;49.940;7.774;2023-06-26T03:35:56;98619.34;;;26.47;38.49
35798;BME280;21918;49.940;7.774;2023-06-26T03:38:22;98630.81;;;26.43;38.47
35798;BME280;21918;49.940;7.774;2023-06-26T03:40:51;98623.50;;;26.42;38.95
35798;BME280;21918;49.940;7.774;2023-06-26T03:43:20;98628.31;;;26.45;38.47
35798;BME280;21918;49.940;7.774;2023-06-26T03:45:47;98617.81;;;26.42;38.70
35798;BME280;21918;49.940;7.774;2023-06-26T03:48:15;98617.22;;;26.35;38.61
35798;BME280;21918;49.940;7.774;2023-06-26T03:50:42;98618.09;;;26.32;38.99
35798;BME280;21918;49.940;7.774;2023-06-26T03:53:11;98614.88;;;26.30;38.91
35798;BME280;21918;49.940;7.774;2023-06-26T04:36:10;98612.97;;;26.07;40.35
35798;BME280;21918;49.940;7.774;2023-06-26T04:38:36;98611.91;;;26.17;40.43
35798;BME280;21918;49.940;7.774;2023-06-26T04:41:03;98616.28;;;26.22;40.19
35798;BME280;21918;49.940;7.774;2023-06-26T04:43:30;98616.00;;;26.16;40.11
35798;BME280;21918;49.940;7.774;2023-06-26T04:45:56;98612.41;;;26.12;40.33
35798;BME280;21918;49.940;7.774;2023-06-26T04:48:26;98613.66;;;26.11;40.32
35798;BME280;21918;49.940;7.774;2023-06-26T04:50:54;98622.56;;;26.13;40.36
35798;BME280;21918;49.940;7.774;2023-06-26T04:53:23;98621.69;;;26.16;40.55
35798;BME280;21918;49.940;7.774;2023-06-26T04:55:53;98619.13;;;26.22;40.33
35798;BME280;21918;49.940;7.774;2023-06-26T04:58:20;98619.91;;;26.22;40.08
35798;BME280;21918;49.940;7.774;2023-06-26T05:00:47;98621.00;;;26.28;40.34
35798;BME280;21918;49.940;7.774;2023-06-26T05:03:16;98610.34;;;26.32;40.39
35798;BME280;21918;49.940;7.774;2023-06-26T05:05:44;98609.84;;;26.37;40.44
35798;BME280;21918;49.940;7.774;2023-06-26T05:08:15;98619.88;;;26.42;40.59
35798;BME280;21918;49.940;7.774;2023-06-26T05:10:44;98606.03;;;26.44;40.25
35798;BME280;21918;49.940;7.774;2023-06-26T05:13:11;98609.41;;;26.39;40.57
35798;BME280;21918;49.940;7.774;2023-06-26T05:15:40;98604.88;;;26.41;40.54
35798;BME280;21918;49.940;7.774;2023-06-26T05:18:07;98597.16;;;26.42;40.39
35798;BME280;21918;49.940;7.774;2023-06-26T05:20:34;98598.31;;;26.44;40.73
35798;BME280;21918;49.940;7.774;2023-06-26T05:23:01;98598.31;;;26.44;40.70
35798;BME280;21918;49.940;7.774;2023-06-26T05:25:29;98597.44;;;26.47;40.61
35798;BME280;21918;49.940;7.774;2023-06-26T05:27:57;98599.72;;;26.52;40.62
35798;BME280;21918;49.940;7.774;2023-06-26T05:30:25;98602.41;;;26.59;40.93
35798;BME280;21918;49.940;7.774;2023-06-26T05:32:55;98598.72;;;26.62;40.71
35798;BME280;21918;49.940;7.774;2023-06-26T05:35:22;98597.81;;;26.65;40.85
35798;BME280;21918;49.940;7.774;2023-06-26T05:37:50;98598.91;;;26.71;40.65
35798;BME280;21918;49.940;7.774;2023-06-26T05:40:17;98609.28;;;26.78;40.62
35798;BME280;21918;49.940;7.774;2023-06-26T05:42:47;98601.47;;;26.82;40.50
35798;BME280;21918;49.940;7.774;2023-06-26T05:45:15;98597.72;;;26.85;40.70
35798;BME280;21918;49.940;7.774;2023-06-26T05:47:42;98600.94;;;26.87;40.96
35798;BME280;21918;49.940;7.774;2023-06-26T05:50:10;98592.34;;;26.90;40.74
35798;BME280;21918;49.940;7.774;2023-06-26T05:52:37;98604.41;;;26.94;40.81
35798;BME280;21918;49.940;7.774;2023-06-26T05:55:06;98589.75;;;26.96;40.92
35798;BME280;21918;49.940;7.774;2023-06-26T05:57:34;98588.41;;;27.01;40.95
35798;BME280;21918;49.940;7.774;2023-06-26T06:00:01;98586.28;;;27.05;40.98
35798;BME280;21918;49.940;7.774;2023-06-26T06:02:32;98581.75;;;27.07;40.93
35798;BME280;21918;49.940;7.774;2023-06-26T06:04:59;98582.00;;;27.13;40.95
35798;BME280;21918;49.940;7.774;2023-06-26T06:07:25;98584.31;;;27.18;41.13
35798;BME280;21918;49.940;7.774;2023-06-26T06:09:55;98578.50;;;27.21;40.79
35798;BME280;21918;49.940;7.774;2023-06-26T06:12:22;98580.03;;;27.26;40.79
35798;BME280;21918;49.940;7.774;2023-06-26T06:14:48;98577.56;;;27.28;41.02
35798;BME280;21918;49.940;7.774;2023-06-26T06:17:15;98573.81;;;27.31;41.18
35798;BME280;21918;49.940;7.774;2023-06-26T06:19:43;98571.69;;;27.35;41.18
35798;BME280;21918;49.940;7.774;2023-06-26T06:22:09;98570.78;;;27.38;41.06
35798;BME280;21918;49.940;7.774;2023-06-26T06:24:36;98578.75;;;27.43;41.16
35798;BME280;21918;49.940;7.774;2023-06-26T06:27:03;98589.25;;;27.46;41.52
35798;BME280;21918;49.940;7.774;2023-06-26T06:29:29;98584.38;;;27.46;41.29
35798;BME280;21918;49.940;7.774;2023-06-26T06:31:56;98592.34;;;27.51;41.38
35798;BME280;21918;49.940;7.774;2023-06-26T06:34:23;98595.41;;;27.57;41.13
35798;BME280;21918;49.940;7.774;2023-06-26T06:36:51;98594.88;;;27.62;41.26
35798;BME280;21918;49.940;7.774;2023-06-26T06:39:17;98604.81;;;27.70;41.43
35798;BME280;21918;49.940;7.774;2023-06-26T06:41:44;98611.88;;;27.78;41.38
35798;BME280;21918;49.940;7.774;2023-06-26T06:44:10;98611.25;;;27.86;41.31
35798;BME280;21918;49.940;7.774;2023-06-26T06:46:37;98619.63;;;27.93;41.26
35798;BME280;21918;49.940;7.774;2023-06-26T06:49:04;98619.84;;;27.99;41.31
35798;BME280;21918;49.940;7.774;2023-06-26T06:51:30;98618.69;;;27.96;41.63
35798;BME280;21918;49.940;7.774;2023-06-26T06:53:58;98624.13;;;27.91;41.92
35798;BME280;21918;49.940;7.774;2023-06-26T06:56:25;98627.09;;;27.87;41.58
35798;BME280;21918;49.940;7.774;2023-06-26T06:58:52;98617.53;;;27.94;40.71
35798;BME280;21918;49.940;7.774;2023-06-26T07:01:18;98623.84;;;28.01;40.19
35798;BME280;21918;49.940;7.774;2023-06-26T07:03:45;98621.47;;;28.12;39.52
35798;BME280;21918;49.940;7.774;2023-06-26T07:06:12;98623.78;;;28.17;38.84
35798;BME280;21918;49.940;7.774;2023-06-26T07:08:41;98633.00;;;28.21;38.60
35798;BME280;21918;49.940;7.774;2023-06-26T07:11:09;98632.78;;;28.28;38.42
35798;BME280;21918;49.940;7.774;2023-06-26T07:13:35;98629.72;;;28.35;38.58
35798;BME280;21918;49.940;7.774;2023-06-26T07:16:03;98624.69;;;28.39;38.47
35798;BME280;21918;49.940;7.774;2023-06-26T07:18:30;98625.75;;;28.45;38.38
35798;BME280;21918;49.940;7.774;2023-06-26T07:20:57;98629.66;;;28.51;38.07
35798;BME280;21918;49.940;7.774;2023-06-26T07:23:23;98629.88;;;28.57;37.71
35798;BME280;21918;49.940;7.774;2023-06-26T07:25:50;98632.84;;;28.66;37.79
35798;BME280;21918;49.940;7.774;2023-06-26T07:28:18;98630.09;;;28.75;37.94
35798;BME280;21918;49.940;7.774;2023-06-26T07:30:44;98629.41;;;28.83;37.96
35798;BME280;21918;49.940;7.774;2023-06-26T07:33:11;98636.47;;;28.91;38.25
35798;BME280;21918;49.940;7.774;2023-06-26T07:35:38;98639.88;;;28.99;38.00
35798;BME280;21918;49.940;7.774;2023-06-26T07:38:04;98640.63;;;29.03;37.85
35798;BME280;21918;49.940;7.774;2023-06-26T07:40:31;98647.66;;;29.11;37.95
35798;BME280;21918;49.940;7.774;2023-06-26T07:42:57;98643.53;;;29.12;37.72
35798;BME280;21918;49.940;7.774;2023-06-26T07:45:26;98653.38;;;29.11;37.36
35798;BME280;21918;49.940;7.774;2023-06-26T07:47:52;98650.97;;;29.09;37.50
35798;BME280;21918;49.940;7.774;2023-06-26T07:50:19;98666.03;;;29.10;37.08
35798;BME280;21918;49.940;7.774;2023-06-26T07:52:48;98662.72;;;29.11;37.45
35798;BME280;21918;49.940;7.774;2023-06-26T07:55:14;98668.75;;;29.13;37.45
35798;BME280;21918;49.940;7.774;2023-06-26T07:57:41;98657.34;;;29.13;37.24
35798;BME280;21918;49.940;7.774;2023-06-26T08:00:08;98676.03;;;29.14;37.24
35798;BME280;21918;49.940;7.774;2023-06-26T08:02:37;98663.25;;;29.19;36.97
35798;BME280;21918;49.940;7.774;2023-06-26T08:05:04;98663.81;;;29.27;37.19
35798;BME280;21918;49.940;7.774;2023-06-26T08:07:30;98672.94;;;29.34;37.04
35798;BME280;21918;49.940;7.774;2023-06-26T08:09:57;98674.53;;;29.35;36.69
35798;BME280;21918;49.940;7.774;2023-06-26T08:12:23;98660.63;;;29.37;36.83
35798;BME280;21918;49.940;7.774;2023-06-26T08:14:53;98666.53;;;29.43;36.91
35798;BME280;21918;49.940;7.774;2023-06-26T08:17:20;98674.84;;;29.50;37.06
35798;BME280;21918;49.940;7.774;2023-06-26T08:19:48;98663.75;;;29.52;36.47
35798;BME280;21918;49.940;7.774;2023-06-26T08:22:14;98660.78;;;29.55;36.78
35798;BME280;21918;49.940;7.774;2023-06-26T08:24:41;98655.31;;;29.61;36.62
35798;BME280;21918;49.940;7.774;2023-06-26T08:27:08;98664.09;;;29.66;36.72
35798;BME280;21918;49.940;7.774;2023-06-26T08:29:34;98645.78;;;29.76;36.64
35798;BME280;21918;49.940;7.774;2023-06-26T08:32:01;98656.63;;;29.81;36.46
35798;BME280;21918;49.940;7.774;2023-06-26T08:34:28;98668.03;;;29.81;36.26
35798;BME280;21918;49.940;7.774;2023-06-26T08:36:56;98652.50;;;29.82;35.45
35798;BME280;21918;49.940;7.774;2023-06-26T08:39:23;98663.00;;;29.85;35.67
35798;BME280;21918;49.940;7.774;2023-06-26T08:41:50;98657.13;;;29.89;35.89
35798;BME280;21918;49.940;7.774;2023-06-26T08:44:16;98658.75;;;29.90;35.71
35798;BME280;21918;49.940;7.774;2023-06-26T08:46:43;98669.72;;;29.91;35.47
35798;BME280;21918;49.940;7.774;2023-06-26T08:49:14;98664.31;;;29.93;35.08
35798;BME280;21918;49.940;7.774;2023-06-26T08:51:48;98667.53;;;29.95;35.48
35798;BME280;21918;49.940;7.774;2023-06-26T08:54:23;98664.31;;;29.93;35.13
35798;BME280;21918;49.940;7.774;2023-06-26T08:56:50;98655.16;;;29.98;35.43
35798;BME280;21918;49.940;7.774;2023-06-26T08:59:17;98665.97;;;30.03;35.27
35798;BME280;21918;49.940;7.774;2023-06-26T09:01:45;98661.63;;;30.11;35.19
35798;BME280;21918;49.940;7.774;2023-06-26T09:04:13;98666.41;;;30.14;35.45
35798;BME280;21918;49.940;7.774;2023-06-26T09:06:39;98662.63;;;30.17;35.37
35798;BME280;21918;49.940;7.774;2023-06-26T09:09:06;98664.22;;;30.18;35.61
35798;BME280;21918;49.940;7.774;2023-06-26T09:11:35;98663.97;;;30.25;35.22
35798;BME280;21918;49.940;7.774;2023-06-26T09:14:01;98675.13;;;30.32;35.41
35798;BME280;21918;49.940;7.774;2023-06-26T09:16:31;98676.13;;;30.38;35.39
35798;BME280;21918;49.940;7.774;2023-06-26T09:18:57;98665.94;;;30.37;34.73
35798;BME280;21918;49.940;7.774;2023-06-26T09:21:24;98669.13;;;30.39;35.09
35798;BME280;21918;49.940;7.774;2023-06-26T09:23:52;98667.28;;;30.45;34.96
35798;BME280;21918;49.940;7.774;2023-06-26T09:26:21;98675.56;;;30.52;34.52
35798;BME280;21918;49.940;7.774;2023-06-26T09:28:49;98680.19;;;30.59;34.72
35798;BME280;21918;49.940;7.774;2023-06-26T09:31:16;98691.97;;;30.61;34.44
35798;BME280;21918;49.940;7.774;2023-06-26T09:33:46;98690.88;;;30.67;34.40
35798;BME280;21918;49.940;7.774;2023-06-26T09:36:19;98691.53;;;30.71;34.31
35798;BME280;21918;49.940;7.774;2023-06-26T09:38:47;98689.22;;;30.79;34.81
35798;BME280;21918;49.940;7.774;2023-06-26T09:41:15;98691.03;;;30.85;34.17
35798;BME280;21918;49.940;7.774;2023-06-26T09:43:45;98705.63;;;30.87;34.31
35798;BME280;21918;49.940;7.774;2023-06-26T09:46:16;98693.25;;;30.90;34.23
35798;BME280;21918;49.940;7.774;2023-06-26T09:48:43;98703.47;;;31.00;34.09
35798;BME280;21918;49.940;7.774;2023-06-26T09:51:10;98682.03;;;31.05;34.05
35798;BME280;21918;49.940;7.774;2023-06-26T09:53:37;98701.28;;;31.13;34.60
35798;BME280;21918;49.940;7.774;2023-06-26T09:56:06;98695.91;;;31.24;34.20
35798;BME280;21918;49.940;7.774;2023-06-26T09:58:33;98692.97;;;31.37;34.23
35798;BME280;21918;49.940;7.774;2023-06-26T10:01:08;98700.63;;;31.49;33.78
35798;BME280;21918;49.940;7.774;2023-06-26T10:03:37;98701.31;;;31.62;33.80
35798;BME280;21918;49.940;7.774;2023-06-26T10:06:04;98710.88;;;31.68;32.83
35798;BME280;21918;49.940;7.774;2023-06-26T10:08:34;98706.53;;;31.73;33.22
35798;BME280;21918;49.940;7.774;2023-06-26T10:11:03;98689.41;;;31.82;32.68
35798;BME280;21918;49.940;7.774;2023-06-26T10:13:31;98701.97;;;31.84;32.87
35798;BME280;21918;49.940;7.774;2023-06-26T10:16:01;98699.59;;;31.92;32.89
35798;BME280;21918;49.940;7.774;2023-06-26T10:18:28;98694.22;;;31.94;32.67
35798;BME280;21918;49.940;7.774;2023-06-26T10:21:01;98695.47;;;32.02;32.19
35798;BME280;21918;49.940;7.774;2023-06-26T10:23:30;98681.44;;;32.13;32.44
35798;BME280;21918;49.940;7.774;2023-06-26T10:25:58;98692.59;;;32.20;32.45
35798;BME280;21918;49.940;7.774;2023-06-26T10:28:30;98689.72;;;32.29;31.28
35798;BME280;21918;49.940;7.774;2023-06-26T10:31:02;98686.38;;;32.21;31.83
35798;BME280;21918;49.940;7.774;2023-06-26T10:33:30;98695.78;;;32.22;31.32
35798;BME280;21918;49.940;7.774;2023-06-26T13:19:28;98766.22;;;33.60;23.28
35798;BME280;21918;49.940;7.774;2023-06-26T13:21:57;98763.94;;;33.64;23.22
35798;BME280;21918;49.940;7.774;2023-06-26T13:24:25;98766.69;;;33.58;23.58
35798;BME280;21918;49.940;7.774;2023-06-26T13:26:52;98763.03;;;33.58;23.46
35798;BME280;21918;49.940;7.774;2023-06-26T13:29:19;98757.63;;;33.51;23.35
35798;BME280;21918;49.940;7.774;2023-06-26T13:31:45;98773.44;;;33.46;24.21
35798;BME280;21918;49.940;7.774;2023-06-26T13:34:20;98769.31;;;33.47;24.15
35798;BME280;21918;49.940;7.774;2023-06-26T13:36:49;98773.84;;;33.63;23.74
35798;BME280;21918;49.940;7.774;2023-06-26T13:39:16;98772.88;;;33.66;23.27
35798;BME280;21918;49.940;7.774;2023-06-26T13:41:43;98784.38;;;33.66;23.79
35798;BME280;21918;49.940;7.774;2023-06-26T13:44:10;98777.94;;;33.71;23.57
35798;BME280;21918;49.940;7.774;2023-06-26T13:46:37;98786.91;;;33.73;23.72
35798;BME280;21918;49.940;7.774;2023-06-26T13:49:03;98792.44;;;33.77;23.10
35798;BME280;21918;49.940;7.774;2023-06-26T13:51:30;98790.06;;;33.75;23.04
35798;BME280;21918;49.940;7.774;2023-06-26T13:53:58;98782.38;;;33.81;22.41
35798;BME280;21918;49.940;7.774;2023-06-26T13:56:26;98789.03;;;33.96;23.13
35798;BME280;21918;49.940;7.774;2023-06-26T13:58:56;98783.50;;;34.07;23.06
35798;BME280;21918;49.940;7.774;2023-06-26T14:01:22;98775.69;;;34.08;22.30
35798;BME280;21918;49.940;7.774;2023-06-26T14:03:51;98772.19;;;34.04;23.48
35798;BME280;21918;49.940;7.774;2023-06-26T14:16:11;98783.00;;;33.85;21.37
35798;BME280;21918;49.940;7.774;2023-06-26T14:18:38;98792.75;;;33.88;22.13
35798;BME280;21918;49.940;7.774;2023-06-26T14:21:05;98790.81;;;33.85;21.25
35798;BME280;21918;49.940;7.774;2023-06-26T14:23:32;98792.28;;;33.80;22.03
35798;BME280;21918;49.940;7.774;2023-06-26T14:25:58;98795.97;;;33.81;22.18
35798;BME280;21918;49.940;7.774;2023-06-26T14:28:25;98789.69;;;33.82;21.99
35798;BME280;21918;49.940;7.774;2023-06-26T14:30:52;98786.91;;;33.73;21.49
35798;BME280;21918;49.940;7.774;2023-06-26T14:33:20;98778.16;;;33.67;21.64
35798;BME280;21918;49.940;7.774;2023-06-26T14:35:46;98793.25;;;33.77;21.40
35798;BME280;21918;49.940;7.774;2023-06-26T14:38:16;98789.22;;;33.84;20.65
35798;BME280;21918;49.940;7.774;2023-06-26T14:40:42;98788.59;;;33.80;21.52
35798;BME280;21918;49.940;7.774;2023-06-26T14:43:09;98784.31;;;33.75;20.85
35798;BME280;21918;49.940;7.774;2023-06-26T14:45:36;98790.69;;;33.79;21.56
35798;BME280;21918;49.940;7.774;2023-06-26T14:48:02;98803.78;;;33.80;22.18
35798;BME280;21918;49.940;7.774;2023-06-26T14:50:30;98795.13;;;33.89;21.47
35798;BME280;21918;49.940;7.774;2023-06-26T14:52:57;98795.06;;;33.98;21.82
35798;BME280;21918;49.940;7.774;2023-06-26T14:55:25;98793.47;;;33.97;22.33
35798;BME280;21918;49.940;7.774;2023-06-26T14:57:52;98789.63;;;34.00;21.47
35798;BME280;21918;49.940;7.774;2023-06-26T15:00:21;98790.41;;;34.01;22.05
35798;BME280;21918;49.940;7.774;2023-06-26T15:02:49;98789.31;;;33.98;22.33
35798;BME280;21918;49.940;7.774;2023-06-26T15:05:18;98798.31;;;33.91;22.71
35798;BME280;21918;49.940;7.774;2023-06-26T15:07:46;98800.56;;;33.87;20.60
35798;BME280;21918;49.940;7.774;2023-06-26T15:10:13;98791.41;;;33.98;20.23
35798;BME280;21918;49.940;7.774;2023-06-26T15:12:40;98793.78;;;33.99;20.03
35798;BME280;21918;49.940;7.774;2023-06-26T15:15:07;98797.56;;;34.05;20.62
35798;BME280;21918;49.940;7.774;2023-06-26T15:17:34;98808.28;;;34.05;20.59
35798;BME280;21918;49.940;7.774;2023-06-26T15:20:05;98802.53;;;34.05;20.16
35798;BME280;21918;49.940;7.774;2023-06-26T15:22:32;98805.28;;;33.99;20.32
35798;BME280;21918;49.940;7.774;2023-06-26T15:25:00;98790.91;;;33.99;21.13
35798;BME280;21918;49.940;7.774;2023-06-26T15:27:27;98803.75;;;33.89;21.48
35798;BME280;21918;49.940;7.774;2023-06-26T15:29:56;98809.31;;;33.84;21.48
35798;BME280;21918;49.940;7.774;2023-06-26T15:32:23;98810.00;;;33.88;19.95
35798;BME280;21918;49.940;7.774;2023-06-26T15:34:49;98799.28;;;33.88;20.47
35798;BME280;21918;49.940;7.774;2023-06-26T15:37:16;98803.13;;;33.85;21.14
35798;BME280;21918;49.940;7.774;2023-06-26T15:39:42;98802.00;;;33.83;22.25
35798;BME280;21918;49.940;7.774;2023-06-26T15:42:13;98806.88;;;33.67;21.40
35798;BME280;21918;49.940;7.774;2023-06-26T15:44:40;98795.88;;;33.66;20.76
35798;BME280;21918;49.940;7.774;2023-06-26T15:47:10;98801.56;;;33.75;21.02
35798;BME280;21918;49.940;7.774;2023-06-26T15:49:37;98802.53;;;33.72;21.57
35798;BME280;21918;49.940;7.774;2023-06-26T15:52:07;98812.13;;;33.69;21.83
35798;BME280;21918;49.940;7.774;2023-06-26T15:54:33;98812.44;;;33.71;22.23
35798;BME280;21918;49.940;7.774;2023-06-26T15:57:00;98808.22;;;33.57;22.15
35798;BME280;21918;49.940;7.774;2023-06-26T15:59:28;98812.88;;;33.46;22.67
35798;BME280;21918;49.940;7.774;2023-06-26T16:01:54;98817.69;;;33.40;22.60
35798;BME280;21918;49.940;7.774;2023-06-26T16:04:21;98818.16;;;33.38;23.06
35798;BME280;21918;49.940;7.774;2023-06-26T16:06:48;98820.56;;;33.40;23.37
35798;BME280;21918;49.940;7.774;2023-06-26T16:09:14;98820.88;;;33.33;23.12
35798;BME280;21918;49.940;7.774;2023-06-26T16:11:41;98819.44;;;33.28;22.69
35798;BME280;21918;49.940;7.774;2023-06-26T16:14:08;98826.97;;;33.17;22.64
35798;BME280;21918;49.940;7.774;2023-06-26T16:16:36;98826.34;;;33.13;23.21
35798;BME280;21918;49.940;7.774;2023-06-26T16:19:02;98830.53;;;33.03;23.31
35798;BME280;21918;49.940;7.774;2023-06-26T16:21:30;98824.16;;;32.99;23.05
35798;BME280;21918;49.940;7.774;2023-06-26T16:23:57;98821.28;;;32.90;22.85
35798;BME280;21918;49.940;7.774;2023-06-26T16:26:23;98819.53;;;32.92;23.88
35798;BME280;21918;49.940;7.774;2023-06-26T16:28:50;98831.19;;;32.98;23.82
35798;BME280;21918;49.940;7.774;2023-06-26T16:31:17;98829.09;;;32.98;23.47
35798;BME280;21918;49.940;7.774;2023-06-26T16:33:45;98826.56;;;32.91;22.83
35798;BME280;21918;49.940;7.774;2023-06-26T16:36:12;98823.88;;;32.88;23.42
35798;BME280;21918;49.940;7.774;2023-06-26T16:38:38;98824.34;;;32.86;23.54
35798;BME280;21918;49.940;7.774;2023-06-26T16:41:06;98836.31;;;32.85;23.36
35798;BME280;21918;49.940;7.774;2023-06-26T16:43:37;98837.38;;;32.78;23.38
35798;BME280;21918;49.940;7.774;2023-06-26T16:46:05;98831.00;;;32.74;23.38
35798;BME280;21918;49.940;7.774;2023-06-26T16:48:31;98836.94;;;32.71;23.48
35798;BME280;21918;49.940;7.774;2023-06-26T16:51:01;98836.28;;;32.67;23.56
35798;BME280;21918;49.940;7.774;2023-06-26T16:53:28;98838.50;;;32.63;23.21
35798;BME280;21918;49.940;7.774;2023-06-26T16:55:55;98835.63;;;32.54;23.35
35798;BME280;21918;49.940;7.774;2023-06-26T16:58:21;98856.03;;;32.47;23.62
35798;BME280;21918;49.940;7.774;2023-06-26T17:00:51;98841.53;;;32.32;22.99